KSBM/SBM METAR and TAF weather

Enter ICAO airport designator
Station Type Date Time Source
KSBM METAR 2022/12/08 13:53 UTC NOAA

KSBM 081353Z AUTO 03006KT 10SM OVC027 M02/M05 A3043 RMK AO2 SLP315 T10221050


Station Type Date Time Source
KSBM Decoded METAR 2022/12/08 13:53 UTC NOAA

SHEBOYGAN CO MEMORIAL AIRPORT , WI, United States (KSBM) 43-47N 87-51W 232M
Dec 08, 2022 - 08:53 AM EST / 2022.12.08 1353 UTC
Wind: from the NNE (030 degrees) at 7 MPH (6 KT):0
Visibility: 10 mile(s):0
Sky conditions: overcast
Temperature: 28.0 F (-2.2 C)
Windchill: 21 F (-6 C):1
Dew Point: 23.0 F (-5.0 C)
Relative Humidity: 81%
Pressure (altimeter): 30.43 in. Hg (1030 hPa)
ob: KSBM 081353Z AUTO 03006KT 10SM OVC027 M02/M05 A3043 RMK AO2 SLP315 T10221050
cycle: 14

Station Type Date Time Source
KSBM TAF 2022/12/08 12:36 UTC NOAA

TAF
AMD KSBM 081133Z 0812/0912 03007KT P6SM OVC029
FM081700 07005KT P6SM BKN035
FM082100 08006KT P6SM FEW035 SCT250
FM090700 10007KT P6SM SCT035 BKN070

Example: see airport list